sensor_id;sensor_type;location;lat;lon;timestamp;pressure;altitude;pressure_sealevel;temperature;humidity
19831;BME280;10076;52.008;4.708;2023-04-29T00:01:54;101596.44;;;12.43;100.00
19831;BME280;10076;52.008;4.708;2023-04-29T00:04:26;101599.50;;;12.38;100.00
19831;BME280;10076;52.008;4.708;2023-04-29T00:06:51;101593.84;;;12.42;100.00
19831;BME280;10076;52.008;4.708;2023-04-29T00:09:17;101609.44;;;12.34;100.00
19831;BME280;10076;52.008;4.708;2023-04-29T00:11:42;101602.81;;;12.27;100.00
19831;BME280;10076;52.008;4.708;2023-04-29T00:14:07;101602.56;;;12.18;100.00
19831;BME280;10076;52.008;4.708;2023-04-29T00:16:33;101599.19;;;12.16;100.00
19831;BME280;10076;52.008;4.708;2023-04-29T00:18:58;101598.38;;;12.28;100.00
19831;BME280;10076;52.008;4.708;2023-04-29T00:21:24;101605.75;;;12.23;100.00
19831;BME280;10076;52.008;4.708;2023-04-29T00:23:51;101611.00;;;12.24;100.00
19831;BME280;10076;52.008;4.708;2023-04-29T00:26:17;101605.75;;;12.23;100.00
19831;BME280;10076;52.008;4.708;2023-04-29T00:28:42;101615.56;;;12.35;100.00
19831;BME280;10076;52.008;4.708;2023-04-29T00:31:07;101608.97;;;12.28;100.00
19831;BME280;10076;52.008;4.708;2023-04-29T00:33:32;101614.72;;;12.34;100.00
19831;BME280;10076;52.008;4.708;2023-04-29T00:35:58;101615.81;;;12.18;100.00
19831;BME280;10076;52.008;4.708;2023-04-29T00:38:23;101617.00;;;12.26;100.00
19831;BME280;10076;52.008;4.708;2023-04-29T00:40:48;101621.22;;;12.16;100.00
19831;BME280;10076;52.008;4.708;2023-04-29T00:43:14;101616.69;;;12.18;100.00
19831;BME280;10076;52.008;4.708;2023-04-29T00:45:39;101613.41;;;12.27;100.00
19831;BME280;10076;52.008;4.708;2023-04-29T00:48:05;101612.97;;;12.21;100.00
19831;BME280;10076;52.008;4.708;2023-04-29T00:50:30;101611.28;;;12.20;100.00
19831;BME280;10076;52.008;4.708;2023-04-29T00:52:55;101618.00;;;12.11;100.00
19831;BME280;10076;52.008;4.708;2023-04-29T00:55:22;101621.25;;;12.02;100.00
19831;BME280;10076;52.008;4.708;2023-04-29T00:57:48;101625.03;;;12.12;100.00
19831;BME280;10076;52.008;4.708;2023-04-29T01:00:17;101624.03;;;12.13;100.00
19831;BME280;10076;52.008;4.708;2023-04-29T01:02:43;101627.19;;;12.06;100.00
19831;BME280;10076;52.008;4.708;2023-04-29T01:05:10;101627.06;;;12.21;100.00
19831;BME280;10076;52.008;4.708;2023-04-29T01:07:55;101632.81;;;12.01;100.00
19831;BME280;10076;52.008;4.708;2023-04-29T01:10:28;101627.78;;;11.97;100.00
19831;BME280;10076;52.008;4.708;2023-04-29T01:18:25;101636.78;;;11.80;100.00
19831;BME280;10076;52.008;4.708;2023-04-29T01:20:52;101648.38;;;12.06;100.00
19831;BME280;10076;52.008;4.708;2023-04-29T01:23:17;101634.19;;;11.93;100.00
19831;BME280;10076;52.008;4.708;2023-04-29T01:25:43;101633.66;;;11.88;100.00
19831;BME280;10076;52.008;4.708;2023-04-29T01:28:40;101647.53;;;11.91;100.00
19831;BME280;10076;52.008;4.708;2023-04-29T01:33:50;101647.53;;;12.05;100.00
19831;BME280;10076;52.008;4.708;2023-04-29T01:36:35;101650.94;;;11.93;100.00
19831;BME280;10076;52.008;4.708;2023-04-29T01:39:36;101651.66;;;12.09;100.00
19831;BME280;10076;52.008;4.708;2023-04-29T01:42:42;101656.69;;;12.00;100.00
19831;BME280;10076;52.008;4.708;2023-04-29T01:45:10;101660.94;;;12.02;100.00
19831;BME280;10076;52.008;4.708;2023-04-29T01:47:39;101654.25;;;11.97;100.00
19831;BME280;10076;52.008;4.708;2023-04-29T01:50:05;101662.75;;;12.16;100.00
19831;BME280;10076;52.008;4.708;2023-04-29T01:52:31;101656.97;;;12.09;100.00
19831;BME280;10076;52.008;4.708;2023-04-29T01:54:56;101657.25;;;12.05;100.00
19831;BME280;10076;52.008;4.708;2023-04-29T01:57:21;101664.41;;;12.17;100.00
19831;BME280;10076;52.008;4.708;2023-04-29T01:59:47;101670.47;;;12.19;100.00
19831;BME280;10076;52.008;4.708;2023-04-29T02:02:12;101661.88;;;12.15;100.00
19831;BME280;10076;52.008;4.708;2023-04-29T02:04:39;101673.56;;;12.25;100.00
19831;BME280;10076;52.008;4.708;2023-04-29T02:07:04;101670.75;;;12.14;100.00
19831;BME280;10076;52.008;4.708;2023-04-29T02:09:30;101679.63;;;12.13;100.00
19831;BME280;10076;52.008;4.708;2023-04-29T02:11:55;101675.22;;;12.14;100.00
19831;BME280;10076;52.008;4.708;2023-04-29T02:14:20;101676.25;;;12.11;100.00
19831;BME280;10076;52.008;4.708;2023-04-29T02:16:46;101679.63;;;12.13;100.00
19831;BME280;10076;52.008;4.708;2023-04-29T02:19:12;101684.38;;;12.22;100.00
19831;BME280;10076;52.008;4.708;2023-04-29T02:21:37;101685.03;;;12.26;100.00
19831;BME280;10076;52.008;4.708;2023-04-29T02:24:04;101688.41;;;12.28;100.00
19831;BME280;10076;52.008;4.708;2023-04-29T02:26:30;101699.38;;;12.36;100.00
19831;BME280;10076;52.008;4.708;2023-04-29T02:28:55;101692.06;;;12.39;100.00
19831;BME280;10076;52.008;4.708;2023-04-29T02:31:21;101692.47;;;12.33;100.00
19831;BME280;10076;52.008;4.708;2023-04-29T02:33:46;101698.88;;;12.43;100.00
19831;BME280;10076;52.008;4.708;2023-04-29T02:36:12;101695.16;;;12.45;100.00
19831;BME280;10076;52.008;4.708;2023-04-29T02:38:38;101700.69;;;12.42;100.00
19831;BME280;10076;52.008;4.708;2023-04-29T02:41:03;101705.09;;;12.42;100.00
19831;BME280;10076;52.008;4.708;2023-04-29T02:43:28;101706.34;;;12.50;100.00
19831;BME280;10076;52.008;4.708;2023-04-29T02:45:56;101710.41;;;12.42;100.00
19831;BME280;10076;52.008;4.708;2023-04-29T02:48:22;101716.13;;;12.36;100.00
19831;BME280;10076;52.008;4.708;2023-04-29T02:50:47;101718.28;;;12.43;100.00
19831;BME280;10076;52.008;4.708;2023-04-29T02:53:13;101724.13;;;12.48;100.00
19831;BME280;10076;52.008;4.708;2023-04-29T02:55:38;101720.44;;;12.37;100.00
19831;BME280;10076;52.008;4.708;2023-04-29T02:58:03;101723.19;;;12.36;100.00
19831;BME280;10076;52.008;4.708;2023-04-29T03:00:29;101734.66;;;12.36;100.00
19831;BME280;10076;52.008;4.708;2023-04-29T03:02:54;101735.00;;;12.44;100.00
19831;BME280;10076;52.008;4.708;2023-04-29T03:05:19;101735.94;;;12.57;100.00
19831;BME280;10076;52.008;4.708;2023-04-29T03:07:45;101738.47;;;12.58;100.00
19831;BME280;10076;52.008;4.708;2023-04-29T03:10:10;101738.97;;;12.51;100.00
19831;BME280;10076;52.008;4.708;2023-04-29T03:12:36;101741.59;;;12.65;100.00
19831;BME280;10076;52.008;4.708;2023-04-29T03:15:01;101736.75;;;12.71;100.00
19831;BME280;10076;52.008;4.708;2023-04-29T03:17:27;101734.75;;;12.75;100.00
19831;BME280;10076;52.008;4.708;2023-04-29T03:19:52;101733.72;;;12.63;100.00
19831;BME280;10076;52.008;4.708;2023-04-29T03:22:18;101741.59;;;12.65;100.00
19831;BME280;10076;52.008;4.708;2023-04-29T03:24:43;101736.09;;;12.68;100.00
19831;BME280;10076;52.008;4.708;2023-04-29T03:27:09;101739.34;;;12.59;100.00
19831;BME280;10076;52.008;4.708;2023-04-29T03:29:35;101743.22;;;12.53;100.00
19831;BME280;10076;52.008;4.708;2023-04-29T03:32:00;101738.69;;;12.55;100.00
19831;BME280;10076;52.008;4.708;2023-04-29T03:34:27;101750.88;;;12.58;100.00
19831;BME280;10076;52.008;4.708;2023-04-29T03:36:53;101744.53;;;12.60;100.00
19831;BME280;10076;52.008;4.708;2023-04-29T03:39:19;101747.63;;;12.67;100.00
19831;BME280;10076;52.008;4.708;2023-04-29T03:41:46;101748.38;;;12.69;100.00
19831;BME280;10076;52.008;4.708;2023-04-29T03:44:11;101749.94;;;12.59;100.00
19831;BME280;10076;52.008;4.708;2023-04-29T03:46:36;101745.91;;;12.66;100.00
19831;BME280;10076;52.008;4.708;2023-04-29T03:49:02;101755.78;;;12.64;100.00
19831;BME280;10076;52.008;4.708;2023-04-29T03:51:27;101752.19;;;12.65;100.00
19831;BME280;10076;52.008;4.708;2023-04-29T03:53:54;101751.16;;;12.67;100.00
19831;BME280;10076;52.008;4.708;2023-04-29T03:56:23;101754.13;;;12.75;100.00
19831;BME280;10076;52.008;4.708;2023-04-29T03:58:50;101753.72;;;12.81;100.00
19831;BME280;10076;52.008;4.708;2023-04-29T04:01:15;101767.69;;;12.71;100.00
19831;BME280;10076;52.008;4.708;2023-04-29T04:03:41;101765.50;;;12.77;100.00
19831;BME280;10076;52.008;4.708;2023-04-29T04:06:07;101749.47;;;12.79;100.00
19831;BME280;10076;52.008;4.708;2023-04-29T04:08:32;101761.97;;;12.77;100.00
19831;BME280;10076;52.008;4.708;2023-04-29T04:10:58;101765.84;;;12.85;100.00
19831;BME280;10076;52.008;4.708;2023-04-29T04:13:30;101770.13;;;12.88;100.00
19831;BME280;10076;52.008;4.708;2023-04-29T04:15:56;101764.22;;;12.83;100.00
19831;BME280;10076;52.008;4.708;2023-04-29T04:18:21;101769.84;;;12.78;100.00
19831;BME280;10076;52.008;4.708;2023-04-29T04:20:46;101771.56;;;12.79;100.00
19831;BME280;10076;52.008;4.708;2023-04-29T04:23:12;101768.91;;;12.79;100.00
19831;BME280;10076;52.008;4.708;2023-04-29T04:25:38;101775.69;;;12.83;100.00
19831;BME280;10076;52.008;4.708;2023-04-29T04:28:03;101774.22;;;12.79;100.00
19831;BME280;10076;52.008;4.708;2023-04-29T04:30:29;101784.78;;;12.93;100.00
19831;BME280;10076;52.008;4.708;2023-04-29T04:32:54;101783.06;;;12.92;100.00
19831;BME280;10076;52.008;4.708;2023-04-29T04:35:19;101793.78;;;12.77;100.00
19831;BME280;10076;52.008;4.708;2023-04-29T04:37:44;101788.94;;;12.83;100.00
19831;BME280;10076;52.008;4.708;2023-04-29T04:40:10;101799.41;;;12.72;100.00
19831;BME280;10076;52.008;4.708;2023-04-29T04:42:36;101797.03;;;12.68;100.00
19831;BME280;10076;52.008;4.708;2023-04-29T04:45:01;101808.56;;;12.81;100.00
19831;BME280;10076;52.008;4.708;2023-04-29T04:47:27;101808.19;;;12.87;100.00
19831;BME280;10076;52.008;4.708;2023-04-29T04:49:53;101812.69;;;12.85;100.00
19831;BME280;10076;52.008;4.708;2023-04-29T04:52:21;101813.66;;;12.84;100.00
19831;BME280;10076;52.008;4.708;2023-04-29T04:54:46;101820.28;;;12.77;100.00
19831;BME280;10076;52.008;4.708;2023-04-29T04:57:12;101817.16;;;12.84;100.00
19831;BME280;10076;52.008;4.708;2023-04-29T04:59:37;101825.84;;;12.86;100.00
19831;BME280;10076;52.008;4.708;2023-04-29T05:02:03;101820.19;;;12.92;100.00
19831;BME280;10076;52.008;4.708;2023-04-29T05:04:28;101825.50;;;12.92;100.00
19831;BME280;10076;52.008;4.708;2023-04-29T05:06:53;101831.28;;;12.99;100.00
19831;BME280;10076;52.008;4.708;2023-04-29T05:09:18;101835.19;;;13.06;100.00
19831;BME280;10076;52.008;4.708;2023-04-29T05:11:44;101847.22;;;13.11;100.00
19831;BME280;10076;52.008;4.708;2023-04-29T05:14:10;101851.47;;;13.13;100.00
19831;BME280;10076;52.008;4.708;2023-04-29T05:16:35;101846.56;;;13.08;100.00
19831;BME280;10076;52.008;4.708;2023-04-29T05:19:01;101852.38;;;13.00;100.00
19831;BME280;10076;52.008;4.708;2023-04-29T05:21:26;101860.97;;;13.04;100.00
19831;BME280;10076;52.008;4.708;2023-04-29T05:23:51;101856.47;;;12.92;100.00
19831;BME280;10076;52.008;4.708;2023-04-29T05:26:17;101864.97;;;12.97;100.00
19831;BME280;10076;52.008;4.708;2023-04-29T05:28:42;101865.81;;;12.97;100.00
19831;BME280;10076;52.008;4.708;2023-04-29T05:31:07;101878.13;;;12.84;100.00
19831;BME280;10076;52.008;4.708;2023-04-29T05:33:33;101864.53;;;12.90;100.00
19831;BME280;10076;52.008;4.708;2023-04-29T05:35:58;101872.25;;;12.93;100.00
19831;BME280;10076;52.008;4.708;2023-04-29T05:38:24;101875.13;;;12.90;100.00
19831;BME280;10076;52.008;4.708;2023-04-29T05:40:56;101873.31;;;12.91;100.00
19831;BME280;10076;52.008;4.708;2023-04-29T05:43:22;101881.16;;;12.92;100.00
19831;BME280;10076;52.008;4.708;2023-04-29T05:45:47;101880.88;;;12.97;100.00
19831;BME280;10076;52.008;4.708;2023-04-29T05:48:13;101879.38;;;12.93;100.00
19831;BME280;10076;52.008;4.708;2023-04-29T05:50:38;101880.13;;;12.95;100.00
19831;BME280;10076;52.008;4.708;2023-04-29T05:53:03;101890.69;;;13.09;100.00
19831;BME280;10076;52.008;4.708;2023-04-29T05:55:29;101893.06;;;13.13;100.00
19831;BME280;10076;52.008;4.708;2023-04-29T05:57:55;101884.75;;;13.31;100.00
19831;BME280;10076;52.008;4.708;2023-04-29T06:00:20;101889.53;;;13.26;100.00
19831;BME280;10076;52.008;4.708;2023-04-29T06:02:45;101898.13;;;13.30;100.00
19831;BME280;10076;52.008;4.708;2023-04-29T06:05:10;101905.28;;;13.42;100.00
19831;BME280;10076;52.008;4.708;2023-04-29T06:07:36;101911.16;;;13.47;100.00
19831;BME280;10076;52.008;4.708;2023-04-29T06:10:01;101915.09;;;13.54;100.00
19831;BME280;10076;52.008;4.708;2023-04-29T06:12:26;101910.06;;;13.63;100.00
19831;BME280;10076;52.008;4.708;2023-04-29T06:14:52;101914.63;;;13.74;100.00
19831;BME280;10076;52.008;4.708;2023-04-29T06:17:20;101919.34;;;13.82;100.00
19831;BME280;10076;52.008;4.708;2023-04-29T06:19:46;101927.53;;;13.92;100.00
19831;BME280;10076;52.008;4.708;2023-04-29T06:22:11;101925.38;;;14.11;100.00
19831;BME280;10076;52.008;4.708;2023-04-29T06:24:36;101935.03;;;14.24;100.00
19831;BME280;10076;52.008;4.708;2023-04-29T06:27:02;101937.28;;;14.30;100.00
19831;BME280;10076;52.008;4.708;2023-04-29T06:29:28;101942.28;;;14.35;100.00
19831;BME280;10076;52.008;4.708;2023-04-29T06:31:53;101939.84;;;14.44;100.00
19831;BME280;10076;52.008;4.708;2023-04-29T06:34:20;101939.44;;;14.50;100.00
19831;BME280;10076;52.008;4.708;2023-04-29T06:36:45;101950.28;;;14.59;100.00
19831;BME280;10076;52.008;4.708;2023-04-29T06:39:11;101948.81;;;14.55;100.00
19831;BME280;10076;52.008;4.708;2023-04-29T06:41:36;101945.69;;;14.49;100.00
19831;BME280;10076;52.008;4.708;2023-04-29T06:44:01;101955.72;;;14.58;100.00
19831;BME280;10076;52.008;4.708;2023-04-29T06:46:27;101961.22;;;14.67;100.00
19831;BME280;10076;52.008;4.708;2023-04-29T06:48:53;101968.56;;;14.89;100.00
19831;BME280;10076;52.008;4.708;2023-04-29T06:51:19;101959.94;;;14.98;100.00
19831;BME280;10076;52.008;4.708;2023-04-29T06:53:44;101968.63;;;15.12;100.00
19831;BME280;10076;52.008;4.708;2023-04-29T06:56:10;101971.19;;;15.14;100.00
19831;BME280;10076;52.008;4.708;2023-04-29T06:58:35;101971.88;;;15.40;100.00
19831;BME280;10076;52.008;4.708;2023-04-29T07:01:01;101980.19;;;15.48;100.00
19831;BME280;10076;52.008;4.708;2023-04-29T07:03:28;101981.88;;;15.73;100.00
19831;BME280;10076;52.008;4.708;2023-04-29T07:05:53;101993.50;;;15.95;100.00
19831;BME280;10076;52.008;4.708;2023-04-29T07:08:19;101996.22;;;16.06;100.00
19831;BME280;10076;52.008;4.708;2023-04-29T07:10:52;101999.44;;;16.22;100.00
19831;BME280;10076;52.008;4.708;2023-04-29T07:13:18;101993.75;;;16.26;100.00
19831;BME280;10076;52.008;4.708;2023-04-29T07:15:43;101998.75;;;16.07;100.00
19831;BME280;10076;52.008;4.708;2023-04-29T07:18:08;102004.28;;;15.93;100.00
19831;BME280;10076;52.008;4.708;2023-04-29T07:20:35;102008.63;;;15.71;100.00
19831;BME280;10076;52.008;4.708;2023-04-29T07:23:01;102004.97;;;15.49;100.00
19831;BME280;10076;52.008;4.708;2023-04-29T07:25:26;102008.63;;;15.48;100.00
19831;BME280;10076;52.008;4.708;2023-04-29T07:27:53;102012.38;;;15.20;100.00
19831;BME280;10076;52.008;4.708;2023-04-29T07:30:19;102010.03;;;15.28;100.00
19831;BME280;10076;52.008;4.708;2023-04-29T07:32:44;102018.97;;;15.40;100.00
19831;BME280;10076;52.008;4.708;2023-04-29T07:35:09;102020.59;;;15.30;100.00
19831;BME280;10076;52.008;4.708;2023-04-29T07:37:34;102019.50;;;15.32;100.00
19831;BME280;10076;52.008;4.708;2023-04-29T07:40:00;102023.13;;;15.19;100.00
19831;BME280;10076;52.008;4.708;2023-04-29T07:42:25;102022.25;;;15.31;100.00
19831;BME280;10076;52.008;4.708;2023-04-29T07:44:50;102025.03;;;15.29;100.00
19831;BME280;10076;52.008;4.708;2023-04-29T07:47:16;102026.09;;;15.27;100.00
19831;BME280;10076;52.008;4.708;2023-04-29T07:49:41;102031.06;;;15.44;100.00
19831;BME280;10076;52.008;4.708;2023-04-29T07:52:07;102028.94;;;15.49;100.00
19831;BME280;10076;52.008;4.708;2023-04-29T07:54:37;102026.53;;;15.33;100.00
19831;BME280;10076;52.008;4.708;2023-04-29T07:57:03;102032.47;;;15.49;100.00
19831;BME280;10076;52.008;4.708;2023-04-29T07:59:31;102030.91;;;15.70;100.00
19831;BME280;10076;52.008;4.708;2023-04-29T08:01:57;102034.00;;;15.77;100.00
19831;BME280;10076;52.008;4.708;2023-04-29T08:04:23;102031.56;;;15.97;100.00
19831;BME280;10076;52.008;4.708;2023-04-29T08:06:48;102034.59;;;16.03;100.00
19831;BME280;10076;52.008;4.708;2023-04-29T08:09:14;102035.88;;;16.10;100.00
19831;BME280;10076;52.008;4.708;2023-04-29T08:11:40;102037.03;;;16.06;100.00
19831;BME280;10076;52.008;4.708;2023-04-29T08:14:06;102032.63;;;16.18;100.00
19831;BME280;10076;52.008;4.708;2023-04-29T08:16:31;102035.66;;;16.24;100.00
19831;BME280;10076;52.008;4.708;2023-04-29T08:18:56;102030.16;;;16.27;100.00
19831;BME280;10076;52.008;4.708;2023-04-29T08:21:22;102036.94;;;16.31;100.00
19831;BME280;10076;52.008;4.708;2023-04-29T08:23:47;102039.19;;;16.48;100.00
19831;BME280;10076;52.008;4.708;2023-04-29T08:26:13;102035.59;;;16.71;100.00
19831;BME280;10076;52.008;4.708;2023-04-29T08:28:39;102035.06;;;17.00;100.00
19831;BME280;10076;52.008;4.708;2023-04-29T08:31:04;102036.88;;;17.22;100.00
19831;BME280;10076;52.008;4.708;2023-04-29T08:33:35;102044.19;;;17.52;100.00
19831;BME280;10076;52.008;4.708;2023-04-29T08:36:02;102047.91;;;17.72;100.00
19831;BME280;10076;52.008;4.708;2023-04-29T08:38:30;102048.06;;;17.59;100.00
19831;BME280;10076;52.008;4.708;2023-04-29T08:40:56;102053.88;;;17.64;100.00
19831;BME280;10076;52.008;4.708;2023-04-29T08:43:22;102055.91;;;17.94;100.00
19831;BME280;10076;52.008;4.708;2023-04-29T08:45:48;102056.44;;;17.66;100.00
19831;BME280;10076;52.008;4.708;2023-04-29T08:48:15;102070.19;;;17.61;100.00
19831;BME280;10076;52.008;4.708;2023-04-29T08:50:41;102066.03;;;17.79;100.00
19831;BME280;10076;52.008;4.708;2023-04-29T08:53:07;102061.28;;;18.14;100.00
19831;BME280;10076;52.008;4.708;2023-04-29T08:55:43;102066.16;;;18.20;100.00
19831;BME280;10076;52.008;4.708;2023-04-29T08:58:09;102065.56;;;18.16;100.00
19831;BME280;10076;52.008;4.708;2023-04-29T09:00:35;102066.63;;;18.36;100.00
19831;BME280;10076;52.008;4.708;2023-04-29T09:03:11;102069.19;;;18.58;100.00
19831;BME280;10076;52.008;4.708;2023-04-29T09:05:39;102075.91;;;18.72;100.00
19831;BME280;10076;52.008;4.708;2023-04-29T09:08:07;102077.91;;;19.11;100.00
19831;BME280;10076;52.008;4.708;2023-04-29T09:10:35;102073.41;;;19.81;100.00
19831;BME280;10076;52.008;4.708;2023-04-29T09:13:01;102074.25;;;20.77;100.00
19831;BME280;10076;52.008;4.708;2023-04-29T09:15:26;102081.16;;;21.54;100.00
19831;BME280;10076;52.008;4.708;2023-04-29T09:17:52;102073.91;;;21.08;100.00
19831;BME280;10076;52.008;4.708;2023-04-29T09:22:49;102084.41;;;20.64;100.00
19831;BME280;10076;52.008;4.708;2023-04-29T09:25:15;102080.72;;;20.65;100.00
19831;BME280;10076;52.008;4.708;2023-04-29T09:27:41;102073.09;;;20.51;100.00
19831;BME280;10076;52.008;4.708;2023-04-29T09:30:07;102078.34;;;20.62;100.00
19831;BME280;10076;52.008;4.708;2023-04-29T09:32:32;102078.72;;;20.95;100.00
19831;BME280;10076;52.008;4.708;2023-04-29T09:34:58;102079.75;;;21.76;100.00
19831;BME280;10076;52.008;4.708;2023-04-29T09:37:26;102091.16;;;23.27;100.00
19831;BME280;10076;52.008;4.708;2023-04-29T09:39:52;102099.16;;;25.08;100.00
19831;BME280;10076;52.008;4.708;2023-04-29T09:42:18;102096.81;;;26.13;97.55
19831;BME280;10076;52.008;4.708;2023-04-29T09:44:43;102096.25;;;27.15;87.80
19831;BME280;10076;52.008;4.708;2023-04-29T09:47:09;102105.66;;;27.98;81.83
19831;BME280;10076;52.008;4.708;2023-04-29T09:49:42;102097.28;;;28.29;74.85
19831;BME280;10076;52.008;4.708;2023-04-29T09:52:12;102101.91;;;27.85;77.29
19831;BME280;10076;52.008;4.708;2023-04-29T09:54:39;102105.56;;;26.98;76.10
19831;BME280;10076;52.008;4.708;2023-04-29T09:57:06;102103.09;;;27.97;73.46
19831;BME280;10076;52.008;4.708;2023-04-29T09:59:37;102099.13;;;27.64;75.70
19831;BME280;10076;52.008;4.708;2023-04-29T10:02:13;102109.81;;;29.34;68.33
19831;BME280;10076;52.008;4.708;2023-04-29T10:04:44;102103.91;;;30.51;60.59
19831;BME280;10076;52.008;4.708;2023-04-29T10:07:16;102115.50;;;31.63;55.13
19831;BME280;10076;52.008;4.708;2023-04-29T10:09:43;102108.16;;;30.73;56.64
19831;BME280;10076;52.008;4.708;2023-04-29T10:12:09;102112.16;;;30.90;54.52
19831;BME280;10076;52.008;4.708;2023-04-29T10:14:40;102124.22;;;31.97;48.94
19831;BME280;10076;52.008;4.708;2023-04-29T10:17:24;102127.97;;;33.63;49.20
19831;BME280;10076;52.008;4.708;2023-04-29T10:19:57;102123.34;;;34.17;43.90
19831;BME280;10076;52.008;4.708;2023-04-29T10:22:47;102117.50;;;34.43;42.19
19831;BME280;10076;52.008;4.708;2023-04-29T10:25:15;102130.16;;;34.44;41.18
19831;BME280;10076;52.008;4.708;2023-04-29T10:27:42;102131.13;;;35.31;38.80
19831;BME280;10076;52.008;4.708;2023-04-29T10:30:11;102135.78;;;34.02;41.29
19831;BME280;10076;52.008;4.708;2023-04-29T10:32:39;102118.88;;;31.52;43.97
19831;BME280;10076;52.008;4.708;2023-04-29T10:35:08;102123.03;;;29.37;49.92
19831;BME280;10076;52.008;4.708;2023-04-29T10:37:34;102113.47;;;28.08;53.79
19831;BME280;10076;52.008;4.708;2023-04-29T10:40:13;102113.63;;;29.39;54.21
19831;BME280;10076;52.008;4.708;2023-04-29T10:50:27;102119.25;;;38.18;34.88
19831;BME280;10076;52.008;4.708;2023-04-29T10:52:55;102113.19;;;38.00;33.45
19831;BME280;10076;52.008;4.708;2023-04-29T10:55:22;102110.78;;;38.78;34.64
19831;BME280;10076;52.008;4.708;2023-04-29T10:57:47;102121.66;;;39.98;32.05
19831;BME280;10076;52.008;4.708;2023-04-29T11:00:39;102122.66;;;40.53;31.33
19831;BME280;10076;52.008;4.708;2023-04-29T11:03:05;102116.94;;;40.89;28.12
19831;BME280;10076;52.008;4.708;2023-04-29T11:05:32;102115.44;;;38.72;30.34
19831;BME280;10076;52.008;4.708;2023-04-29T11:08:20;102114.59;;;37.65;32.76
19831;BME280;10076;52.008;4.708;2023-04-29T11:11:08;102104.81;;;38.90;32.70
19831;BME280;10076;52.008;4.708;2023-04-29T11:13:38;102107.38;;;37.10;30.55
19831;BME280;10076;52.008;4.708;2023-04-29T11:16:08;102108.31;;;36.99;33.00
19831;BME280;10076;52.008;4.708;2023-04-29T11:18:35;102119.63;;;39.42;31.67
19831;BME280;10076;52.008;4.708;2023-04-29T11:23:33;102128.03;;;41.29;29.07
19831;BME280;10076;52.008;4.708;2023-04-29T11:26:02;102126.78;;;42.04;26.29
19831;BME280;10076;52.008;4.708;2023-04-29T11:28:29;102123.00;;;41.71;26.09
19831;BME280;10076;52.008;4.708;2023-04-29T11:30:56;102111.22;;;42.51;27.46
19831;BME280;10076;52.008;4.708;2023-04-29T11:33:22;102110.75;;;43.16;25.87
19831;BME280;10076;52.008;4.708;2023-04-29T11:35:47;102118.66;;;44.31;25.04
19831;BME280;10076;52.008;4.708;2023-04-29T11:38:13;102113.00;;;44.36;25.89
19831;BME280;10076;52.008;4.708;2023-04-29T11:40:48;102108.06;;;43.86;25.07
19831;BME280;10076;52.008;4.708;2023-04-29T11:43:17;102116.53;;;44.41;24.79
19831;BME280;10076;52.008;4.708;2023-04-29T11:45:46;102113.28;;;44.53;24.60
19831;BME280;10076;52.008;4.708;2023-04-29T11:48:25;102121.63;;;45.08;25.09
19831;BME280;10076;52.008;4.708;2023-04-29T11:50:52;102119.00;;;45.75;24.34
19831;BME280;10076;52.008;4.708;2023-04-29T11:53:23;102113.97;;;46.25;23.61
19831;BME280;10076;52.008;4.708;2023-04-29T11:55:49;102111.31;;;45.80;23.35
19831;BME280;10076;52.008;4.708;2023-04-29T11:58:16;102106.69;;;43.04;24.01
19831;BME280;10076;52.008;4.708;2023-04-29T12:00:42;102104.81;;;42.94;24.82
19831;BME280;10076;52.008;4.708;2023-04-29T12:03:13;102105.59;;;44.45;23.79
19831;BME280;10076;52.008;4.708;2023-04-29T12:05:45;102110.06;;;45.14;23.90
19831;BME280;10076;52.008;4.708;2023-04-29T12:08:10;102106.47;;;45.27;22.81
19831;BME280;10076;52.008;4.708;2023-04-29T12:10:36;102106.84;;;45.39;22.74
19831;BME280;10076;52.008;4.708;2023-04-29T12:13:02;102102.19;;;44.84;23.33
19831;BME280;10076;52.008;4.708;2023-04-29T12:15:29;102103.47;;;43.72;24.03
19831;BME280;10076;52.008;4.708;2023-04-29T12:17:54;102098.22;;;43.47;23.26
19831;BME280;10076;52.008;4.708;2023-04-29T12:20:20;102096.56;;;44.71;23.25
19831;BME280;10076;52.008;4.708;2023-04-29T12:22:45;102101.28;;;45.66;23.12
19831;BME280;10076;52.008;4.708;2023-04-29T12:25:11;102102.56;;;46.35;21.93
19831;BME280;10076;52.008;4.708;2023-04-29T12:27:39;102101.25;;;46.90;21.84
19831;BME280;10076;52.008;4.708;2023-04-29T12:30:07;102104.47;;;47.27;21.83
19831;BME280;10076;52.008;4.708;2023-04-29T12:32:33;102106.78;;;46.11;21.54
19831;BME280;10076;52.008;4.708;2023-04-29T12:34:59;102113.69;;;46.13;21.86
19831;BME280;10076;52.008;4.708;2023-04-29T12:37:24;102106.75;;;45.98;21.96
19831;BME280;10076;52.008;4.708;2023-04-29T12:39:50;102105.03;;;46.72;21.70
19831;BME280;10076;52.008;4.708;2023-04-29T12:42:17;102106.81;;;46.33;21.31
19831;BME280;10076;52.008;4.708;2023-04-29T12:44:46;102106.13;;;46.63;21.46
19831;BME280;10076;52.008;4.708;2023-04-29T12:47:12;102109.97;;;45.91;21.66
19831;BME280;10076;52.008;4.708;2023-04-29T12:49:40;102109.53;;;45.44;21.33
19831;BME280;10076;52.008;4.708;2023-04-29T12:52:07;102106.63;;;45.36;21.68
19831;BME280;10076;52.008;4.708;2023-04-29T12:54:40;102103.47;;;43.20;22.78
19831;BME280;10076;52.008;4.708;2023-04-29T12:57:07;102107.66;;;41.83;23.88
19831;BME280;10076;52.008;4.708;2023-04-29T12:59:33;102093.81;;;41.73;24.05
19831;BME280;10076;52.008;4.708;2023-04-29T13:01:58;102093.88;;;41.43;24.36
19831;BME280;10076;52.008;4.708;2023-04-29T13:04:23;102088.00;;;38.97;26.07